createdAt,value
2022-12-23T00:00:08.718Z,84.12
2022-12-23T00:02:35.255Z,84.00
2022-12-23T00:05:01.892Z,84.11
2022-12-23T00:07:28.301Z,83.71
2022-12-23T00:09:54.755Z,83.48
2022-12-23T00:12:21.173Z,83.59
2022-12-23T00:14:47.599Z,83.57
2022-12-23T00:17:29.161Z,84.11
2022-12-23T00:19:55.631Z,84.58
2022-12-23T00:22:22.045Z,84.15
2022-12-23T00:24:49.666Z,83.51
2022-12-23T00:27:16.068Z,83.62
2022-12-23T00:29:42.479Z,84.20
2022-12-23T00:32:09.057Z,84.16
2022-12-23T00:34:35.542Z,84.48
2022-12-23T00:37:01.973Z,84.16
2022-12-23T00:39:28.364Z,83.86
2022-12-23T00:41:54.782Z,84.27
2022-12-23T00:44:21.235Z,84.59
2022-12-23T00:46:47.628Z,84.77
2022-12-23T00:49:14.043Z,84.55
2022-12-23T00:51:40.491Z,84.51
2022-12-23T00:54:06.892Z,84.16
2022-12-23T00:56:33.327Z,84.49
2022-12-23T00:58:59.730Z,84.48
2022-12-23T01:01:26.256Z,83.28
2022-12-23T01:03:52.758Z,83.85
2022-12-23T01:06:19.212Z,84.38
2022-12-23T01:08:45.628Z,84.08
2022-12-23T01:11:12.027Z,84.04
2022-12-23T01:13:38.416Z,84.48
2022-12-23T01:16:04.993Z,84.44
2022-12-23T01:18:31.499Z,84.57
2022-12-23T01:20:57.907Z,84.17
2022-12-23T01:23:24.391Z,83.50
2022-12-23T01:25:50.778Z,83.87
2022-12-23T01:28:17.195Z,83.59
2022-12-23T01:30:43.579Z,83.51
2022-12-23T01:33:09.953Z,83.61
2022-12-23T01:35:36.355Z,83.71
2022-12-23T01:38:02.750Z,83.77
2022-12-23T01:40:29.168Z,84.03
2022-12-23T01:42:55.547Z,83.85
2022-12-23T01:45:21.958Z,83.53
2022-12-23T01:47:48.355Z,84.00
2022-12-23T01:50:14.761Z,84.25
2022-12-23T01:52:41.191Z,83.55
2022-12-23T01:55:07.566Z,83.73
2022-12-23T01:57:34.014Z,83.99
2022-12-23T02:00:00.584Z,83.99
2022-12-23T02:02:27.156Z,83.77
2022-12-23T02:04:53.739Z,83.98
2022-12-23T02:07:20.187Z,84.55
2022-12-23T02:09:46.627Z,84.04
2022-12-23T02:12:13.068Z,84.45
2022-12-23T02:14:39.498Z,84.39
2022-12-23T02:17:06.013Z,83.95
2022-12-23T02:19:32.461Z,84.23
2022-12-23T02:21:58.864Z,83.40
2022-12-23T02:24:25.493Z,83.43
2022-12-23T02:26:51.889Z,83.44
2022-12-23T02:29:18.315Z,84.11
2022-12-23T02:31:44.780Z,84.22
2022-12-23T02:34:11.174Z,84.25
2022-12-23T02:36:37.605Z,84.39
2022-12-23T02:39:04.168Z,83.88
2022-12-23T02:41:30.564Z,84.08
2022-12-23T02:43:57.023Z,83.65
2022-12-23T02:46:23.510Z,84.14
2022-12-23T02:48:49.972Z,83.43
2022-12-23T02:51:16.404Z,84.23
2022-12-23T02:53:42.847Z,83.61
2022-12-23T02:56:09.289Z,83.72
2022-12-23T02:58:35.692Z,84.05
2022-12-23T03:01:02.161Z,83.61
2022-12-23T03:03:28.665Z,84.00
2022-12-23T03:05:55.230Z,83.87
2022-12-23T03:08:21.650Z,83.59
2022-12-23T03:10:48.098Z,83.28
2022-12-23T03:13:14.515Z,83.57
2022-12-23T03:15:41.027Z,83.62
2022-12-23T03:18:07.525Z,83.51
2022-12-23T03:20:33.944Z,84.15
2022-12-23T03:23:00.383Z,83.78
2022-12-23T03:25:26.809Z,83.73
2022-12-23T03:27:53.215Z,84.04
2022-12-23T03:30:19.655Z,84.17
2022-12-23T03:32:46.063Z,84.14
2022-12-23T03:35:12.506Z,83.97
2022-12-23T03:37:38.902Z,84.40
2022-12-23T03:40:05.314Z,83.81
2022-12-23T03:42:31.847Z,83.59
2022-12-23T03:45:28.403Z,84.03
2022-12-23T03:47:44.668Z,83.96
2022-12-23T03:50:11.055Z,83.57
2022-12-23T03:52:37.495Z,83.75
2022-12-23T03:55:03.937Z,83.80
2022-12-23T03:57:30.331Z,84.15
2022-12-23T03:59:56.718Z,83.14
2022-12-23T04:02:23.326Z,83.23
2022-12-23T04:04:49.884Z,83.50
2022-12-23T04:07:16.320Z,83.57
2022-12-23T04:09:42.724Z,82.97
2022-12-23T04:12:09.174Z,83.29
2022-12-23T04:14:35.619Z,82.98
2022-12-23T04:17:02.152Z,82.91
2022-12-23T04:19:28.558Z,83.52
2022-12-23T04:21:54.957Z,83.25
2022-12-23T04:24:21.386Z,83.45
2022-12-23T04:26:47.835Z,83.61
2022-12-23T04:29:14.264Z,83.44
2022-12-23T04:31:40.751Z,83.41
2022-12-23T04:34:07.251Z,83.23
2022-12-23T04:36:33.712Z,82.88
2022-12-23T04:39:00.145Z,83.09
2022-12-23T04:41:26.581Z,83.38
2022-12-23T04:43:53.654Z,83.01
2022-12-23T04:46:20.187Z,83.33
2022-12-23T04:48:46.664Z,83.21
2022-12-23T04:51:13.111Z,83.63
2022-12-23T04:53:39.559Z,83.20
2022-12-23T04:56:06.005Z,83.58
2022-12-23T04:58:32.431Z,83.36
2022-12-23T05:00:58.896Z,83.18
2022-12-23T05:03:25.340Z,83.41
2022-12-23T05:05:51.833Z,83.20
2022-12-23T05:08:18.275Z,83.86
2022-12-23T05:10:44.703Z,83.71
2022-12-23T05:13:11.121Z,83.01
2022-12-23T05:15:37.527Z,83.25
2022-12-23T05:18:03.920Z,82.87
2022-12-23T05:20:30.341Z,83.68
2022-12-23T05:22:56.758Z,83.17
2022-12-23T05:25:23.189Z,83.71
2022-12-23T05:27:49.633Z,83.38
2022-12-23T05:30:16.110Z,83.55
2022-12-23T05:32:42.511Z,83.50
2022-12-23T05:35:08.975Z,83.46
2022-12-23T05:37:35.420Z,83.16
2022-12-23T05:40:01.857Z,83.42
2022-12-23T05:42:28.624Z,83.41
2022-12-23T05:44:55.051Z,83.68
2022-12-23T05:47:21.464Z,83.01
2022-12-23T05:49:47.854Z,83.22
2022-12-23T05:52:14.270Z,83.41
2022-12-23T05:54:40.672Z,83.46
2022-12-23T05:57:07.295Z,83.84
2022-12-23T05:59:33.746Z,84.08
2022-12-23T06:02:00.507Z,82.83
2022-12-23T06:04:27.101Z,83.05
2022-12-23T06:06:53.602Z,82.96
2022-12-23T06:09:20.051Z,83.21
2022-12-23T06:11:46.476Z,83.76
2022-12-23T06:14:12.930Z,83.55
2022-12-23T06:16:39.364Z,83.58
2022-12-23T06:19:05.841Z,84.22
2022-12-23T06:21:32.262Z,83.96
2022-12-23T06:23:58.694Z,83.78
2022-12-23T06:26:25.100Z,84.06
2022-12-23T06:28:51.535Z,83.72
2022-12-23T06:31:18.070Z,82.80
2022-12-23T06:33:44.507Z,83.40
2022-12-23T06:36:11.013Z,83.18
2022-12-23T06:38:37.453Z,83.53
2022-12-23T06:41:03.893Z,83.02
2022-12-23T06:43:30.332Z,82.98
2022-12-23T06:45:56.810Z,83.37
2022-12-23T06:48:23.301Z,83.06
2022-12-23T06:50:49.741Z,83.05
2022-12-23T06:53:16.141Z,82.93
2022-12-23T06:55:42.574Z,83.78
2022-12-23T06:58:08.984Z,84.00
2022-12-23T07:00:35.388Z,83.62
2022-12-23T07:03:01.861Z,83.84
2022-12-23T07:05:33.382Z,83.76
2022-12-23T07:08:03.403Z,83.62
2022-12-23T07:10:29.884Z,84.05
2022-12-23T07:12:56.350Z,83.35
2022-12-23T07:15:22.767Z,83.47
2022-12-23T07:17:49.202Z,83.59
2022-12-23T07:20:15.642Z,84.25
2022-12-23T07:22:42.085Z,84.01
2022-12-23T07:25:08.539Z,83.53
2022-12-23T07:27:35.051Z,82.91
2022-12-23T07:30:01.500Z,83.40
2022-12-23T07:32:27.924Z,83.13
2022-12-23T07:34:54.327Z,83.76
2022-12-23T07:37:20.745Z,83.57
2022-12-23T07:39:47.184Z,83.04
2022-12-23T07:42:43.588Z,83.00
2022-12-23T07:45:00.034Z,83.34
2022-12-23T07:47:26.494Z,83.28
2022-12-23T07:49:54.219Z,83.91
2022-12-23T07:52:20.699Z,84.08
2022-12-23T07:54:47.422Z,84.24
2022-12-23T07:57:15.011Z,84.13
2022-12-23T07:59:41.428Z,83.62
2022-12-23T08:02:08.395Z,84.00
2022-12-23T08:04:42.534Z,83.25
2022-12-23T08:07:12.624Z,83.32
2022-12-23T08:09:39.201Z,83.48
2022-12-23T08:12:05.843Z,83.21
2022-12-23T08:14:32.839Z,83.74
2022-12-23T08:16:59.819Z,83.70
2022-12-23T08:19:26.658Z,83.23
2022-12-23T08:21:53.325Z,83.58
2022-12-23T08:24:21.023Z,83.20
2022-12-23T08:26:47.626Z,84.04
2022-12-23T08:29:14.495Z,83.28
2022-12-23T08:31:41.800Z,83.08
2022-12-23T08:34:08.411Z,82.97
2022-12-23T08:36:34.893Z,83.57
2022-12-23T08:39:01.400Z,83.01
2022-12-23T08:41:27.833Z,82.90
2022-12-23T08:43:54.272Z,83.09
2022-12-23T08:46:20.845Z,84.09
2022-12-23T08:48:49.687Z,83.36
2022-12-23T08:51:16.512Z,83.00
2022-12-23T08:53:42.954Z,83.93
2022-12-23T08:56:09.429Z,83.78
2022-12-23T08:58:35.905Z,83.62
2022-12-23T09:01:03.152Z,83.81
2022-12-23T09:03:30.866Z,83.55
2022-12-23T09:05:57.477Z,83.48
2022-12-23T09:08:23.934Z,83.61
2022-12-23T09:10:50.404Z,83.71
2022-12-23T09:13:26.353Z,83.02
2022-12-23T09:15:58.243Z,83.48
2022-12-23T09:18:25.777Z,83.97
2022-12-23T09:20:52.420Z,83.77
2022-12-23T09:23:18.829Z,83.98
2022-12-23T09:25:45.307Z,83.46
2022-12-23T09:28:11.724Z,83.79
2022-12-23T09:30:38.155Z,83.87
2022-12-23T09:33:05.458Z,84.03
2022-12-23T09:35:32.061Z,82.76
2022-12-23T09:37:59.690Z,83.25
2022-12-23T09:40:26.141Z,83.32
2022-12-23T09:42:52.949Z,83.25
2022-12-23T09:45:20.473Z,84.00
2022-12-23T09:47:47.069Z,83.74
2022-12-23T09:50:14.676Z,83.84
2022-12-23T09:52:42.250Z,83.42
2022-12-23T09:55:08.662Z,82.97
2022-12-23T09:57:35.439Z,82.58
2022-12-23T10:00:02.204Z,83.36
2022-12-23T10:02:29.907Z,83.11
2022-12-23T10:04:56.474Z,82.25
2022-12-23T10:07:23.933Z,83.32
2022-12-23T10:09:51.516Z,82.75
2022-12-23T10:12:23.598Z,83.33
2022-12-23T10:14:53.954Z,81.98
2022-12-23T10:17:21.307Z,82.53
2022-12-23T10:19:47.770Z,82.69
2022-12-23T10:22:14.486Z,82.96
2022-12-23T10:24:41.188Z,83.43
2022-12-23T10:27:08.684Z,83.35
2022-12-23T10:29:35.761Z,82.89
2022-12-23T10:32:02.249Z,83.45
2022-12-23T10:34:33.462Z,83.83
2022-12-23T10:37:03.218Z,84.02
2022-12-23T10:39:29.775Z,84.13
2022-12-23T10:41:57.285Z,84.29
2022-12-23T10:44:23.912Z,83.10
2022-12-23T10:46:50.425Z,83.68
2022-12-23T10:49:16.953Z,84.42
2022-12-23T10:51:43.379Z,83.76
2022-12-23T10:54:09.821Z,83.94
2022-12-23T10:56:36.232Z,84.12
2022-12-23T10:59:03.476Z,83.10
2022-12-23T11:01:30.221Z,84.18
2022-12-23T11:03:57.754Z,84.11
2022-12-23T11:06:24.197Z,83.26
2022-12-23T11:08:50.907Z,83.70
2022-12-23T11:11:17.549Z,84.25
2022-12-23T11:13:44.185Z,84.75
2022-12-23T11:16:10.714Z,84.84
2022-12-23T11:18:41.891Z,84.44
2022-12-23T11:21:08.630Z,84.71
2022-12-23T11:23:35.753Z,84.86
2022-12-23T11:26:04.433Z,85.40
2022-12-23T11:28:31.118Z,84.75
2022-12-23T11:30:57.643Z,84.65
2022-12-23T11:33:24.474Z,84.84
2022-12-23T11:35:50.954Z,84.74
2022-12-23T11:38:17.666Z,84.85
2022-12-23T11:40:44.147Z,84.67
2022-12-23T11:43:10.741Z,85.46
2022-12-23T11:45:37.491Z,85.01
2022-12-23T11:48:06.047Z,84.81
2022-12-23T11:50:33.665Z,84.74
2022-12-23T11:53:00.290Z,84.74
2022-12-23T11:55:26.956Z,84.69
2022-12-23T11:57:56.066Z,84.42
2022-12-23T12:00:23.131Z,85.35
2022-12-23T12:02:49.901Z,85.73
2022-12-23T12:05:17.437Z,85.26
2022-12-23T12:07:45.035Z,84.96
2022-12-23T12:10:11.644Z,84.70
2022-12-23T12:12:38.213Z,85.21
2022-12-23T12:15:04.715Z,84.98
2022-12-23T12:17:31.187Z,84.54
2022-12-23T12:19:57.635Z,84.58
2022-12-23T12:22:24.084Z,84.72
2022-12-23T12:24:51.160Z,85.06
2022-12-23T12:27:18.768Z,84.27
2022-12-23T12:29:45.370Z,83.81
2022-12-23T12:32:13.107Z,84.86
2022-12-23T12:34:39.691Z,85.46
2022-12-23T12:37:07.300Z,84.64
2022-12-23T12:39:34.905Z,84.95
2022-12-23T12:42:05.861Z,85.51
2022-12-23T12:44:33.105Z,85.96
2022-12-23T12:46:59.653Z,86.03
2022-12-23T12:49:26.306Z,86.10
2022-12-23T12:51:52.900Z,85.03
2022-12-23T12:54:19.349Z,85.72
2022-12-23T12:56:47.103Z,85.82
2022-12-23T12:59:15.695Z,85.91
2022-12-23T13:01:43.348Z,85.15
2022-12-23T13:04:11.889Z,85.45
2022-12-23T13:06:39.479Z,85.26
2022-12-23T13:09:08.715Z,85.41
2022-12-23T13:11:35.690Z,85.14
2022-12-23T13:14:03.270Z,85.51
2022-12-23T13:16:29.995Z,85.35
2022-12-23T13:18:57.567Z,85.41
2022-12-23T13:21:24.582Z,85.12
2022-12-23T13:23:51.104Z,84.47
2022-12-23T13:26:17.580Z,84.54
2022-12-23T13:28:44.576Z,84.83
2022-12-23T13:31:11.363Z,85.00
2022-12-23T13:33:38.045Z,84.71
2022-12-23T13:36:06.366Z,84.87
2022-12-23T13:38:34.820Z,84.55
2022-12-23T13:41:02.633Z,85.34
2022-12-23T13:43:29.681Z,84.32
2022-12-23T13:45:56.523Z,84.82
2022-12-23T13:48:27.063Z,84.67
2022-12-23T13:50:54.322Z,84.82
2022-12-23T13:53:21.841Z,85.52
2022-12-23T13:55:48.857Z,84.95
2022-12-23T13:58:16.016Z,84.53
2022-12-23T14:00:43.762Z,84.61
2022-12-23T14:03:11.000Z,84.87
2022-12-23T14:05:39.812Z,84.85
2022-12-23T14:08:06.487Z,84.63
2022-12-23T14:10:34.078Z,84.80
2022-12-23T14:13:00.692Z,85.40
2022-12-23T14:15:27.310Z,84.48
2022-12-23T14:17:54.960Z,84.86
2022-12-23T14:20:24.129Z,84.77
2022-12-23T14:22:50.660Z,84.99
2022-12-23T14:25:17.162Z,84.67
2022-12-23T14:27:43.620Z,84.58
2022-12-23T14:30:10.077Z,85.20
2022-12-23T14:32:37.455Z,84.61
2022-12-23T14:35:04.087Z,84.50
2022-12-23T14:37:31.676Z,85.46
2022-12-23T14:39:58.279Z,85.38
2022-12-23T14:42:24.865Z,84.88
2022-12-23T14:44:51.894Z,85.18
2022-12-23T14:47:22.661Z,84.81
2022-12-23T14:49:49.690Z,84.92
2022-12-23T14:52:18.297Z,85.28
2022-12-23T14:55:06.075Z,85.40
2022-12-23T14:57:33.788Z,85.48
2022-12-23T15:00:00.367Z,85.19
2022-12-23T15:02:26.840Z,85.01
2022-12-23T15:04:54.358Z,84.28
2022-12-23T15:07:22.975Z,85.41
2022-12-23T15:09:49.577Z,86.12
2022-12-23T15:12:16.210Z,85.81
2022-12-23T15:14:42.806Z,86.08
2022-12-23T15:17:10.390Z,86.44
2022-12-23T15:19:39.923Z,85.80
2022-12-23T15:22:17.239Z,86.08
2022-12-23T15:24:49.850Z,85.46
2022-12-23T15:27:32.104Z,86.08
2022-12-23T15:30:05.147Z,85.53
2022-12-23T15:32:32.244Z,85.87
2022-12-23T15:34:58.868Z,85.52
2022-12-23T15:37:25.494Z,86.22
2022-12-23T15:40:03.467Z,84.92
2022-12-23T15:42:33.813Z,85.12
2022-12-23T15:45:01.419Z,85.14
2022-12-23T15:47:27.998Z,85.18
2022-12-23T15:49:55.630Z,85.51
2022-12-23T15:52:22.212Z,85.09
2022-12-23T15:54:49.807Z,85.54
2022-12-23T15:57:17.396Z,85.84
2022-12-23T15:59:44.002Z,85.72
2022-12-23T16:02:40.523Z,85.85
2022-12-23T16:04:58.397Z,85.61
2022-12-23T16:07:24.823Z,85.17
2022-12-23T16:09:51.709Z,85.64
2022-12-23T16:12:18.306Z,86.08
2022-12-23T16:14:45.901Z,85.71
2022-12-23T16:17:13.534Z,85.70
2022-12-23T16:19:41.106Z,85.36
2022-12-23T16:22:08.710Z,85.92
2022-12-23T16:24:35.213Z,85.13
2022-12-23T16:27:01.617Z,85.77
2022-12-23T16:29:28.029Z,85.71
2022-12-23T16:32:01.243Z,85.17
2022-12-23T16:34:29.831Z,85.79
2022-12-23T16:36:56.287Z,85.15
2022-12-23T16:39:22.745Z,85.70
2022-12-23T16:41:49.308Z,85.61
2022-12-23T16:44:16.417Z,84.99
2022-12-23T16:46:44.048Z,85.54
2022-12-23T16:49:10.693Z,85.49
2022-12-23T16:51:38.234Z,84.37
2022-12-23T16:54:04.659Z,85.17
2022-12-23T16:56:31.130Z,85.41
2022-12-23T16:58:57.559Z,85.05
2022-12-23T17:01:24.097Z,84.56
2022-12-23T17:03:50.617Z,84.83
2022-12-23T17:06:17.090Z,85.10
2022-12-23T17:08:43.543Z,84.91
2022-12-23T17:11:10.094Z,85.24
2022-12-23T17:13:38.570Z,85.65
2022-12-23T17:16:06.190Z,85.37
2022-12-23T17:18:33.759Z,85.24
2022-12-23T17:21:01.363Z,85.33
2022-12-23T17:23:27.851Z,84.67
2022-12-23T17:25:54.293Z,84.91
2022-12-23T17:28:21.123Z,85.40
2022-12-23T17:30:47.710Z,85.17
2022-12-23T17:33:15.322Z,86.03
2022-12-23T17:35:41.775Z,86.19
2022-12-23T17:38:08.522Z,85.26
2022-12-23T17:40:35.118Z,85.33
2022-12-23T17:43:01.579Z,85.94
2022-12-23T17:45:28.330Z,85.77
2022-12-23T17:47:56.904Z,85.39
2022-12-23T17:50:23.373Z,85.77
2022-12-23T17:52:50.089Z,86.34
2022-12-23T17:55:17.686Z,85.58
2022-12-23T17:57:45.279Z,85.50
2022-12-23T18:00:11.864Z,85.44
2022-12-23T18:02:38.740Z,85.85
2022-12-23T18:05:06.062Z,85.54
2022-12-23T18:07:32.633Z,84.89
2022-12-23T18:09:59.235Z,85.72
2022-12-23T18:12:25.840Z,85.44
2022-12-23T18:14:52.465Z,85.19
2022-12-23T18:17:20.038Z,85.43
2022-12-23T18:19:46.659Z,84.85
2022-12-23T18:22:13.252Z,84.48
2022-12-23T18:24:39.936Z,85.17
2022-12-23T18:27:07.411Z,85.01
2022-12-23T18:29:34.049Z,85.25
2022-12-23T18:32:01.684Z,85.24
2022-12-23T18:34:29.220Z,85.15
2022-12-23T18:36:55.889Z,84.76
2022-12-23T18:39:23.411Z,84.22
2022-12-23T18:41:50.030Z,84.71
2022-12-23T18:44:17.599Z,83.92
2022-12-23T18:46:45.284Z,84.41
2022-12-23T18:49:12.786Z,83.88
2022-12-23T18:51:39.384Z,84.18
2022-12-23T18:54:05.984Z,84.64
2022-12-23T18:56:32.858Z,84.58
2022-12-23T18:59:00.167Z,85.06
2022-12-23T19:01:26.777Z,84.38
2022-12-23T19:03:53.301Z,84.78
2022-12-23T19:06:19.799Z,84.86
2022-12-23T19:08:46.906Z,84.34
2022-12-23T19:11:14.159Z,85.08
2022-12-23T19:13:41.747Z,85.15
2022-12-23T19:16:08.389Z,84.32
2022-12-23T19:18:34.921Z,84.74
2022-12-23T19:21:03.523Z,84.96
2022-12-23T19:23:30.101Z,84.18
2022-12-23T19:25:57.700Z,83.82
2022-12-23T19:28:25.328Z,83.56
2022-12-23T19:30:53.017Z,84.10
2022-12-23T19:33:20.510Z,83.81
2022-12-23T19:35:47.159Z,84.55
2022-12-23T19:38:13.754Z,84.14
2022-12-23T19:40:41.344Z,84.42
2022-12-23T19:43:08.949Z,84.15
2022-12-23T19:45:36.564Z,84.32
2022-12-23T19:48:04.142Z,84.23
2022-12-23T19:50:30.748Z,84.07
2022-12-23T19:52:58.320Z,85.32
2022-12-23T19:55:24.948Z,85.24
2022-12-23T19:57:52.517Z,85.19
2022-12-23T20:00:20.107Z,85.04
2022-12-23T20:02:46.615Z,85.02
2022-12-23T20:05:13.119Z,85.10
2022-12-23T20:07:39.570Z,85.43
2022-12-23T20:10:06.107Z,84.77
2022-12-23T20:12:32.579Z,84.53
2022-12-23T20:14:59.032Z,84.37
2022-12-23T20:17:25.500Z,85.17
2022-12-23T20:19:52.034Z,84.51
2022-12-23T20:22:19.448Z,85.06
2022-12-23T20:24:47.061Z,85.43
2022-12-23T20:27:16.084Z,85.26
2022-12-23T20:29:44.263Z,85.30
2022-12-23T20:32:10.899Z,85.32
2022-12-23T20:34:39.889Z,85.55
2022-12-23T20:37:07.110Z,85.33
2022-12-23T20:39:34.697Z,85.58
2022-12-23T20:42:02.229Z,85.60
2022-12-23T20:44:35.103Z,85.04
2022-12-23T20:47:03.553Z,84.71
2022-12-23T20:49:31.080Z,85.32
2022-12-23T20:51:57.701Z,84.72
2022-12-23T20:54:31.570Z,85.46
2022-12-23T20:57:00.007Z,85.03
2022-12-23T20:59:26.599Z,84.74
2022-12-23T21:01:54.218Z,84.50
2022-12-23T21:04:21.757Z,85.24
2022-12-23T21:06:48.397Z,84.25
2022-12-23T21:09:14.865Z,84.80
2022-12-23T21:11:41.316Z,84.74
2022-12-23T21:14:08.056Z,84.79
2022-12-23T21:16:34.932Z,84.48
2022-12-23T21:19:01.492Z,85.08
2022-12-23T21:21:29.042Z,85.11
2022-12-23T21:23:55.676Z,84.46
2022-12-23T21:26:22.250Z,84.59
2022-12-23T21:28:48.872Z,84.30
2022-12-23T21:31:15.613Z,84.43
2022-12-23T21:33:43.154Z,84.25
2022-12-23T21:36:11.708Z,84.35
2022-12-23T21:38:40.213Z,84.18
2022-12-23T21:41:06.729Z,84.22
2022-12-23T21:43:34.037Z,84.09
2022-12-23T21:46:02.654Z,84.47
2022-12-23T21:48:30.274Z,84.32
2022-12-23T21:50:58.910Z,84.54
2022-12-23T21:53:26.504Z,84.67
2022-12-23T21:55:54.117Z,84.87
2022-12-23T21:58:20.761Z,85.00
2022-12-23T22:00:48.373Z,85.12
2022-12-23T22:03:15.948Z,84.81
2022-12-23T22:05:42.623Z,84.22
2022-12-23T22:08:09.233Z,84.13
2022-12-23T22:10:36.808Z,84.93
2022-12-23T22:13:05.493Z,84.86
2022-12-23T22:15:34.479Z,84.20
2022-12-23T22:18:01.646Z,84.26
2022-12-23T22:20:29.227Z,85.15
2022-12-23T22:22:55.840Z,84.60
2022-12-23T22:25:22.466Z,84.35
2022-12-23T22:27:49.068Z,84.77
2022-12-23T22:30:15.930Z,85.00
2022-12-23T22:32:42.821Z,84.75
2022-12-23T22:35:09.393Z,84.71
2022-12-23T22:37:35.856Z,84.31
2022-12-23T22:40:03.096Z,84.04
2022-12-23T22:42:30.683Z,85.02
2022-12-23T22:44:58.311Z,83.96
2022-12-23T22:47:26.893Z,84.37
2022-12-23T22:49:54.489Z,83.90
2022-12-23T22:52:21.154Z,84.68
2022-12-23T22:54:48.749Z,83.11
2022-12-23T22:57:17.532Z,85.36
2022-12-23T22:59:44.920Z,85.36
2022-12-23T23:02:13.584Z,85.56
2022-12-23T23:04:41.133Z,85.72
2022-12-23T23:07:07.731Z,85.31
2022-12-23T23:09:36.360Z,84.96
2022-12-23T23:12:03.969Z,85.23
2022-12-23T23:14:31.536Z,84.28
2022-12-23T23:16:58.196Z,85.48
2022-12-23T23:19:24.783Z,84.81
2022-12-23T23:21:51.265Z,85.19
2022-12-23T23:24:17.905Z,85.10
2022-12-23T23:26:45.523Z,85.08
2022-12-23T23:29:12.127Z,84.99
2022-12-23T23:31:42.261Z,85.14
2022-12-23T23:34:10.335Z,85.02
2022-12-23T23:36:36.963Z,84.84
2022-12-23T23:39:04.502Z,84.79
2022-12-23T23:41:32.109Z,85.14
2022-12-23T23:43:58.701Z,84.75
2022-12-23T23:46:25.368Z,84.89
2022-12-23T23:48:53.891Z,84.94
2022-12-23T23:51:21.497Z,84.93
2022-12-23T23:53:48.104Z,84.81
2022-12-23T23:56:16.365Z,83.30
2022-12-23T23:58:45.353Z,83.89
